KFYV/FYV METAR and TAF weather

Enter ICAO airport designator
Station Type Date Time Source
KFYV METAR 2020/06/05 23:53 UTC NOAA

KFYV 052353Z 21006KT 10SM CLR 32/23 A2993 RMK AO2 SLP119 T03220228 10344 20322 55001


Station Type Date Time Source
KFYV Decoded METAR 2020/06/05 23:53 UTC NOAA

FAYETTEVILLE DRAKE FIELD, AR, United States (KFYV) 36-00N 94-10W 379M
Jun 05, 2020 - 07:53 PM EDT / 2020.06.05 2353 UTC
Wind: from the SSW (210 degrees) at 7 MPH (6 KT):0
Visibility: 10 mile(s):0
Sky conditions: clear
Temperature: 90.0 F (32.2 C)
Heat index: 98.1 F (36.7 C):1
Dew Point: 73.0 F (22.8 C)
Relative Humidity: 57%
Pressure (altimeter): 29.93 in. Hg (1013 hPa)
Pressure tendency: 0.00 inches (0.1 hPa) lower than three hours ago
ob: KFYV 052353Z 21006KT 10SM CLR 32/23 A2993 RMK AO2 SLP119 T03220228 10344 20322 55001
cycle: 0

Station Type Date Time Source
KFYV TAF 2020/06/05 18:22 UTC NOAA

TAF KFYV 051720Z 0518/0618 00000KT P6SM SKC
FM060200 20004KT P6SM SCT040
FM060700 VRB03KT P6SM FEW250

Example: see airport list